Time;durP1;ratioP1;P1;durP2;ratioP2;P2;SDS_P1;SDS_P2;PMS_P1;PMS_P2;Temp;Humidity;BMP_temperature;BMP_pressure;BME280_temperature;BME280_humidity;BME280_pressure;Samples;Min_cycle;Max_cycle;Signal;HPM_P1;HPM_P2
2022/06/04 00:01:23;;;;;;;22.10;12.20;;;;;;;24.09;74.58;100149.03;5123730;28;20028;-66
2022/06/04 00:03:48;;;;;;;23.85;13.07;;;;;;;24.13;74.19;100159.13;5126237;28;20094;-67
2022/06/04 00:06:14;;;;;;;19.13;13.20;;;;;;;23.97;75.01;100157.19;5125960;28;20031;-66
2022/06/04 00:08:39;;;;;;;23.85;13.23;;;;;;;23.85;75.15;100145.53;5126139;28;20039;-66
2022/06/04 00:16:33;;;;;;;17.08;10.10;;;;;;;23.81;75.47;100137.09;5121442;28;19943;-67
2022/06/04 00:18:59;;;;;;;19.10;10.80;;;;;;;23.78;75.48;100134.03;5125881;28;20057;-67
2022/06/04 00:21:24;;;;;;;18.42;11.43;;;;;;;23.91;75.11;100132.94;5126014;28;20034;-66
2022/06/04 00:23:50;;;;;;;17.38;10.82;;;;;;;23.66;75.44;100127.84;5125705;28;20041;-67
2022/06/04 00:26:17;;;;;;;17.05;10.48;;;;;;;23.60;75.97;100124.22;5125716;28;20016;-66
2022/06/04 00:28:42;;;;;;;18.45;10.60;;;;;;;23.53;75.95;100126.19;5125721;28;20034;-67
2022/06/04 00:31:09;;;;;;;18.17;10.85;;;;;;;23.50;76.49;100113.16;5125494;28;20019;-66
2022/06/04 00:33:35;;;;;;;16.20;9.25;;;;;;;23.56;76.00;100117.63;5125992;28;20224;-67
2022/06/04 00:36:01;;;;;;;17.50;10.23;;;;;;;23.70;75.33;100115.50;5125661;28;20027;-66
2022/06/04 00:38:29;;;;;;;15.43;9.57;;;;;;;23.72;75.07;100119.59;5125456;28;20039;-66
2022/06/04 00:41:21;;;;;;;20.65;9.82;;;;;;;23.82;74.58;100111.69;5125402;28;20094;-67
2022/06/04 00:44:09;;;;;;;18.33;9.68;;;;;;;23.71;74.93;100119.84;5113688;28;20058;-67
2022/06/04 00:46:41;;;;;;;12.10;9.32;;;;;;;23.75;74.65;100121.81;5067735;28;20047;-66
2022/06/04 00:49:15;;;;;;;15.82;9.63;;;;;;;23.78;74.33;100120.53;5106565;28;20032;-66
2022/06/04 00:51:43;;;;;;;19.13;9.50;;;;;;;23.82;74.11;100121.69;5106474;28;20334;-66
2022/06/04 00:54:09;;;;;;;15.95;9.63;;;;;;;23.72;74.31;100119.59;5106733;28;20060;-66
2022/06/04 00:56:50;;;;;;;19.15;9.85;;;;;;;23.81;74.00;100123.56;5106027;28;20035;-66
2022/06/04 00:59:18;;;;;;;16.90;9.82;;;;;;;23.83;73.99;100113.34;5105679;28;20211;-66
2022/06/04 01:01:56;;;;;;;15.93;8.95;;;;;;;23.84;73.64;100106.88;5106852;28;20309;-66
2022/06/04 01:07:38;;;;;;;15.68;9.27;;;;;;;23.91;73.36;100116.72;5108320;28;20090;-66
2022/06/04 01:10:25;;;;;;;13.48;8.73;;;;;;;23.84;73.59;100112.28;5108451;28;20363;-66
2022/06/04 01:13:09;;;;;;;17.08;9.18;;;;;;;23.75;74.30;100112.88;5098263;28;20067;-66
2022/06/04 01:15:54;;;;;;;;;;;;;;;23.52;75.90;100103.75;5109372;28;20035;-67
2022/06/04 01:18:22;;;;;;;20.45;10.38;;;;;;;23.53;75.74;100110.78;5108555;28;20144;-66
2022/06/04 01:20:50;;;;;;;15.43;10.40;;;;;;;23.59;75.52;100110.94;5106536;28;20077;-66
2022/06/04 01:23:19;;;;;;;16.88;10.20;;;;;;;23.52;75.87;100103.75;5105934;28;20051;-66
2022/06/04 01:26:15;;;;;;;14.98;10.40;;;;;;;23.28;76.53;100102.13;5104968;28;20024;-66
2022/06/04 01:28:48;;;;;;;19.63;10.10;;;;;;;23.28;76.96;100107.53;5106093;28;20296;-66
2022/06/04 01:31:20;;;;;;;17.75;9.70;;;;;;;23.33;76.63;100101.41;5105173;28;20077;-66
2022/06/04 01:33:56;;;;;;;14.15;9.43;;;;;;;23.31;77.16;100100.84;5105131;28;20031;-66
2022/06/04 01:36:27;;;;;;;14.23;8.93;;;;;;;23.45;75.77;100105.75;5109034;28;20313;-66
2022/06/04 01:38:58;;;;;;;16.83;9.90;;;;;;;23.45;75.72;100102.22;5106475;28;20080;-66
2022/06/04 01:41:30;;;;;;;15.55;9.13;;;;;;;23.36;75.91;100098.25;5105936;28;20051;-66
2022/06/04 01:44:19;;;;;;;15.07;8.45;;;;;;;23.48;75.01;100102.56;5105060;28;20035;-66
2022/06/04 01:46:51;;;;;;;15.38;9.02;;;;;;;23.44;75.20;100098.69;5104261;28;20095;-66
2022/06/04 01:49:32;;;;;;;18.92;8.68;;;;;;;23.40;75.37;100097.53;5105182;28;20036;-65
2022/06/04 01:52:06;;;;;;;14.55;8.98;;;;;;;23.41;75.37;100095.66;5110533;28;20438;-66
2022/06/04 01:54:43;;;;;;;16.13;9.52;;;;;;;23.23;75.89;100088.50;5104566;28;20241;-66
2022/06/04 01:57:14;;;;;;;13.65;8.63;;;;;;;23.24;75.75;100080.16;5112558;28;20304;-66
2022/06/04 01:59:46;;;;;;;15.02;8.80;;;;;;;23.14;75.85;100085.34;5105810;28;20434;-67
2022/06/04 02:02:20;;;;;;;13.32;8.88;;;;;;;23.30;74.90;100089.22;5103930;28;20055;-66
2022/06/04 02:04:52;;;;;;;14.75;8.00;;;;;;;23.34;74.61;100084.16;5102124;28;20040;-66
2022/06/04 02:07:30;;;;;;;20.23;8.25;;;;;;;23.26;74.61;100090.75;5103545;28;20036;-66
2022/06/04 02:10:02;;;;;;;14.90;8.00;;;;;;;23.10;75.21;100083.34;5103106;28;20097;-66
2022/06/04 02:12:28;;;;;;;18.35;9.50;;;;;;;23.16;74.52;100094.03;5104751;28;20047;-67
2022/06/04 02:14:54;;;;;;;13.27;8.70;;;;;;;23.15;74.45;100102.38;5102735;28;20035;-67
2022/06/04 02:17:24;;;;;;;16.42;8.40;;;;;;;23.01;75.06;100107.19;5102144;28;20051;-66
2022/06/04 02:19:50;;;;;;;17.95;8.57;;;;;;;23.11;74.37;100106.59;5110564;28;20032;-66
2022/06/04 02:22:16;;;;;;;12.95;8.48;;;;;;;23.11;74.47;100102.03;5122921;28;20322;-66
2022/06/04 02:24:50;;;;;;;13.52;8.25;;;;;;;22.94;74.99;100103.78;5265215;22;20058;-72
2022/06/04 02:27:15;;;;;;;21.38;8.90;;;;;;;22.95;74.31;100104.59;5042792;28;20044;-72
2022/06/04 02:29:42;;;;;;;13.90;8.40;;;;;;;22.96;74.45;100112.47;5045489;28;20033;-72
2022/06/04 02:32:36;;;;;;;12.27;8.57;;;;;;;22.99;73.79;100105.78;5051683;28;20052;-72
2022/06/04 02:35:27;;;;;;;14.27;8.10;;;;;;;22.95;73.82;100116.22;5061536;28;20226;-72
2022/06/04 02:38:10;;;;;;;16.05;8.05;;;;;;;22.82;73.89;100128.03;5045180;28;20257;-72
2022/06/04 02:40:43;;;;;;;14.57;7.80;;;;;;;22.77;73.89;100132.47;5041772;28;20053;-72
2022/06/04 02:43:19;;;;;;;13.85;8.52;;;;;;;22.52;74.96;100133.47;5042429;28;20444;-72
2022/06/04 02:46:02;;;;;;;19.95;8.68;;;;;;;22.57;75.06;100130.91;5043688;28;20060;-72
2022/06/04 02:48:38;;;;;;;13.55;8.40;;;;;;;22.54;75.45;100139.47;5042473;28;20068;-72
2022/06/04 02:51:19;;;;;;;14.77;8.23;;;;;;;22.58;75.32;100146.03;5043326;28;20079;-72
2022/06/04 02:53:45;;;;;;;13.35;8.40;;;;;;;22.61;75.02;100118.59;5041586;28;20064;-72
2022/06/04 02:56:20;;;;;;;20.38;8.90;;;;;;;22.70;75.25;100137.16;5041234;28;20036;-72
2022/06/04 02:58:52;;;;;;;25.52;10.07;;;;;;;22.58;75.85;100147.91;5041443;28;20030;-72
2022/06/04 03:01:19;;;;;;;19.85;9.65;;;;;;;22.60;75.92;100138.53;5041476;28;20330;-72
2022/06/04 03:03:45;;;;;;;16.13;9.00;;;;;;;22.66;75.58;100150.28;5042029;28;20155;-72
2022/06/04 03:06:23;;;;;;;14.23;9.13;;;;;;;22.59;76.49;100155.78;5042005;28;20029;-72
2022/06/04 03:08:49;;;;;;;19.83;10.27;;;;;;;22.58;76.74;100170.31;5042973;28;20033;-72
2022/06/04 03:11:15;;;;;;;18.67;10.13;;;;;;;22.59;77.09;100165.75;5041574;28;20067;-72
2022/06/04 03:13:40;;;;;;;21.75;10.43;;;;;;;22.56;77.33;100160.81;5042883;28;20288;-73
2022/06/04 03:16:06;;;;;;;21.40;10.00;;;;;;;22.54;77.15;100166.44;5042179;28;20025;-72
2022/06/04 03:18:31;;;;;;;18.77;10.60;;;;;;;22.65;76.74;100159.44;5042876;28;20045;-72
2022/06/04 03:20:57;;;;;;;17.80;10.32;;;;;;;22.74;76.05;100166.16;5041074;28;20025;-72
2022/06/04 03:23:23;;;;;;;19.60;10.10;;;;;;;22.61;76.24;100158.25;5040474;28;20376;-72
2022/06/04 03:25:48;;;;;;;15.73;9.90;;;;;;;22.57;76.91;100162.47;5042041;28;20034;-72
2022/06/04 03:28:14;;;;;;;14.55;9.80;;;;;;;22.63;76.11;100156.13;5043203;28;20049;-72
2022/06/04 03:30:40;;;;;;;16.58;9.65;;;;;;;;;;5043644;28;20059;-72
2022/06/04 03:33:06;;;;;;;21.15;10.65;;;;;;;22.93;74.79;100170.47;5042464;28;20025;-72
2022/06/04 03:35:32;;;;;;;21.52;10.02;;;;;;;22.76;75.67;100164.03;5042777;28;20033;-72
2022/06/04 03:37:58;;;;;;;17.33;9.93;;;;;;;22.88;75.03;100161.38;5042508;28;20349;-72
2022/06/04 03:40:23;;;;;;;20.50;10.35;;;;;;;22.78;75.50;100159.22;5043404;28;20372;-72
2022/06/04 03:42:49;;;;;;;16.27;9.93;;;;;;;22.83;74.80;100162.09;5043092;28;20178;-72
2022/06/04 03:45:15;;;;;;;22.25;10.10;;;;;;;22.83;75.18;100164.78;5040897;28;20230;-72
2022/06/04 03:47:41;;;;;;;17.35;10.15;;;;;;;23.04;74.04;100168.84;5043013;28;20036;-72
2022/06/04 03:50:10;;;;;;;17.88;10.77;;;;;;;23.02;74.25;100164.72;5043208;28;20048;-72
2022/06/04 03:52:36;;;;;;;20.05;10.55;;;;;;;22.93;74.59;100166.94;5045103;28;20076;-72
2022/06/04 03:55:02;;;;;;;18.90;9.98;;;;;;;22.84;74.68;100162.91;5043724;28;20045;-72
2022/06/04 03:57:45;;;;;;;17.75;10.73;;;;;;;23.01;74.31;100168.47;5045769;28;20029;-72
2022/06/04 04:00:12;;;;;;;20.77;9.95;;;;;;;23.09;73.92;100171.66;5042474;28;20180;-72
2022/06/04 04:02:38;;;;;;;15.70;9.43;;;;;;;23.11;74.13;100179.53;5044325;28;20029;-72
2022/06/04 04:05:05;;;;;;;21.08;10.88;;;;;;;23.28;72.80;100183.19;5044172;28;20048;-72
2022/06/04 04:07:31;;;;;;;17.40;10.07;;;;;;;23.25;73.10;100181.78;5041887;28;20044;-72
2022/06/04 04:09:57;;;;;;;17.05;10.50;;;;;;;23.26;73.87;100196.09;5049474;28;20045;-72
2022/06/04 04:12:23;;;;;;;16.00;10.30;;;;;;;23.16;74.30;100166.97;5052568;28;20021;-72
2022/06/04 04:14:48;;;;;;;17.23;9.80;;;;;;;23.48;73.45;100178.25;5045533;28;20025;-72
2022/06/04 04:17:13;;;;;;;17.17;9.43;;;;;;;23.64;72.72;100179.44;5042777;28;20037;-72
2022/06/04 04:19:39;;;;;;;18.13;9.35;;;;;;;23.85;72.02;100175.28;5042891;28;20274;-72
2022/06/04 04:22:04;;;;;;;14.35;8.88;;;;;;;24.08;70.71;100172.56;5046550;28;20035;-72
2022/06/04 04:24:30;;;;;;;20.10;12.02;;;;;;;24.30;69.10;100169.22;5045292;28;20045;-72
2022/06/04 04:26:55;;;;;;;15.55;10.25;;;;;;;24.59;67.73;100170.84;5046043;28;20045;-72
2022/06/04 04:29:21;;;;;;;16.80;9.57;;;;;;;24.95;66.11;100175.00;5044415;28;20330;-72
2022/06/04 04:31:47;;;;;;;19.00;9.18;;;;;;;25.16;65.06;100170.78;5046007;28;20029;-72
2022/06/04 04:34:12;;;;;;;22.85;9.05;;;;;;;25.50;63.24;100165.31;5045602;28;20044;-72
2022/06/04 04:36:38;;;;;;;13.60;8.95;;;;;;;25.72;62.42;100168.91;5044586;28;20338;-72
2022/06/04 04:39:03;;;;;;;13.70;8.65;;;;;;;26.10;61.34;100176.19;5044289;28;20037;-73
2022/06/04 04:41:29;;;;;;;16.63;9.15;;;;;;;26.20;60.30;100184.44;5046833;28;20242;-72
2022/06/04 04:43:55;;;;;;;16.35;9.82;;;;;;;26.48;59.39;100180.72;5046958;28;20030;-72
2022/06/04 04:46:21;;;;;;;16.45;11.00;;;;;;;26.41;59.59;100188.25;5045291;28;20062;-72
2022/06/04 04:48:47;;;;;;;19.40;9.45;;;;;;;26.59;59.54;100181.63;5045814;28;20037;-73
2022/06/04 04:51:19;;;;;;;18.30;9.30;;;;;;;26.92;57.96;100186.00;5044974;28;20215;-73
2022/06/04 04:53:45;;;;;;;20.38;9.50;;;;;;;27.10;57.53;100191.13;5045466;28;20033;-73
2022/06/04 04:56:14;;;;;;;21.55;9.50;;;;;;;27.14;57.49;100196.84;5043849;28;20029;-73
2022/06/04 04:58:39;;;;;;;21.73;9.38;;;;;;;27.46;57.03;100192.19;5044382;28;20045;-73
2022/06/04 05:01:06;;;;;;;18.75;9.48;;;;;;;27.43;57.08;100190.00;5059176;28;20030;-73
2022/06/04 05:03:31;;;;;;;15.93;11.13;;;;;;;27.48;56.21;100190.03;5044285;28;20065;-73
2022/06/04 05:06:01;;;;;;;13.32;9.85;;;;;;;27.44;56.18;100185.38;5043775;28;20227;-74
2022/06/04 05:08:27;;;;;;;15.38;9.10;;;;;;;27.63;55.69;100186.59;5044235;28;20052;-73
2022/06/04 05:10:52;;;;;;;13.93;9.38;;;;;;;27.94;54.73;100185.69;5061836;28;20033;-72
2022/06/04 05:13:19;;;;;;;12.75;8.48;;;;;;;28.13;53.88;100172.44;5044098;28;20041;-73
2022/06/04 05:15:44;;;;;;;13.93;8.77;;;;;;;28.49;52.77;100186.19;5045305;28;20037;-72
2022/06/04 05:18:10;;;;;;;13.20;8.65;;;;;;;28.54;52.61;100176.09;5045199;28;20029;-72
2022/06/04 05:20:36;;;;;;;15.15;8.57;;;;;;;28.81;51.67;100177.78;5044384;28;20029;-73
2022/06/04 05:23:01;;;;;;;18.60;8.48;;;;;;;28.96;50.78;100185.16;5044750;28;20259;-73
2022/06/04 05:25:27;;;;;;;11.88;8.02;;;;;;;29.25;50.13;100180.81;5044146;28;20045;-73
2022/06/04 05:27:52;;;;;;;14.95;8.07;;;;;;;29.30;49.45;100182.72;5060931;28;20036;-72
2022/06/04 05:30:18;;;;;;;13.02;7.88;;;;;;;29.47;49.14;100180.53;5062698;28;20025;-72
2022/06/04 05:32:43;;;;;;;13.50;8.20;;;;;;;29.72;48.52;100194.13;5046139;28;20029;-72
2022/06/04 05:35:09;;;;;;;12.70;7.30;;;;;;;29.95;47.84;100181.75;5045262;28;20331;-73
2022/06/04 05:37:35;;;;;;;10.57;7.25;;;;;;;30.24;47.29;100189.31;5044947;28;20047;-72
2022/06/04 05:40:00;;;;;;;10.40;7.35;;;;;;;30.45;46.34;100191.66;5044225;28;20025;-73
2022/06/04 05:42:26;;;;;;;15.48;7.50;;;;;;;30.69;46.12;100201.91;5044438;28;20095;-73
2022/06/04 05:44:52;;;;;;;17.45;6.55;;;;;;;30.47;46.61;100199.56;5044822;28;20322;-73
2022/06/04 05:47:17;;;;;;;15.93;7.97;;;;;;;30.40;47.58;100196.34;5046214;28;20029;-73
2022/06/04 05:49:43;;;;;;;17.35;7.85;;;;;;;30.70;46.80;100200.81;5062558;28;20052;-72
2022/06/04 05:52:08;;;;;;;18.23;8.25;;;;;;;31.08;46.26;100193.69;5059655;28;20028;-73
2022/06/04 05:54:34;;;;;;;17.13;7.68;;;;;;;31.44;44.61;100200.50;5043141;28;20039;-72
2022/06/04 05:57:00;;;;;;;12.02;6.85;;;;;;;31.47;44.83;100201.84;5043190;28;20045;-72
2022/06/04 05:59:25;;;;;;;20.50;8.30;;;;;;;31.01;45.06;100204.97;5042906;28;20042;-72
2022/06/04 06:01:52;;;;;;;10.63;7.90;;;;;;;30.77;45.28;100206.78;5042817;28;20029;-72
2022/06/04 06:04:19;;;;;;;13.05;7.32;;;;;;;30.71;45.35;100205.19;5043237;28;20042;-72
2022/06/04 06:06:47;;;;;;;12.38;6.93;;;;;;;31.02;45.42;100192.09;5043917;28;20025;-72
2022/06/04 06:09:16;;;;;;;14.57;6.75;;;;;;;31.29;44.41;100202.59;5043489;28;20029;-72
2022/06/04 06:11:43;;;;;;;10.30;7.13;;;;;;;30.87;45.44;100195.78;5043367;28;20076;-72
2022/06/04 06:14:08;;;;;;;9.73;6.47;;;;;;;31.47;43.76;100201.03;5043636;28;20040;-72
2022/06/04 06:16:37;;;;;;;12.18;6.57;;;;;;;31.85;42.81;100193.81;5044917;28;20238;-72
2022/06/04 06:19:03;;;;;;;16.15;6.53;;;;;;;31.70;42.55;100187.41;5042976;28;20037;-72
2022/06/04 06:21:32;;;;;;;12.40;6.53;;;;;;;32.17;41.44;100193.94;5042088;28;20044;-72
2022/06/04 06:23:58;;;;;;;10.88;5.78;;;;;;;32.46;40.91;100199.38;5043326;28;20045;-72
2022/06/04 06:26:27;;;;;;;12.45;6.70;;;;;;;32.83;39.70;100193.06;5043531;28;20051;-72
2022/06/04 06:28:53;;;;;;;13.55;6.72;;;;;;;33.18;39.49;100188.09;5044493;28;20349;-73
2022/06/04 06:31:21;;;;;;;12.15;6.10;;;;;;;33.32;39.07;100183.50;5043948;28;20041;-72
2022/06/04 06:33:47;;;;;;;12.00;5.90;;;;;;;33.48;38.91;100176.63;5042748;28;20103;-73
2022/06/04 06:36:15;;;;;;;14.77;5.72;;;;;;;33.66;37.95;100174.91;5042767;28;20029;-72
2022/06/04 06:38:41;;;;;;;11.27;5.88;;;;;;;33.61;37.58;100180.50;5044474;28;20061;-73
2022/06/04 06:41:08;;;;;;;7.97;6.00;;;;;;;33.74;37.00;100170.63;5043296;28;20041;-73
2022/06/04 06:43:36;;;;;;;10.52;5.43;;;;;;;33.89;36.95;100184.91;5042505;28;20246;-73
2022/06/04 06:46:08;;;;;;;11.13;5.55;;;;;;;34.06;36.15;100177.97;5043965;28;20072;-72
2022/06/04 06:48:35;;;;;;;11.98;5.50;;;;;;;34.31;35.74;100185.63;5043556;28;20025;-73
2022/06/04 06:51:23;;;;;;;11.80;6.00;;;;;;;34.42;35.57;100175.28;5046669;28;20028;-73
2022/06/04 06:53:49;;;;;;;7.07;4.80;;;;;;;34.57;35.26;100174.94;5041700;28;20036;-72
2022/06/04 06:56:18;;;;;;;8.45;5.15;;;;;;;34.78;35.00;100167.00;5043732;28;20036;-73
2022/06/04 06:58:44;;;;;;;10.45;5.65;;;;;;;34.93;34.44;100165.84;5043660;28;20045;-73
2022/06/04 07:01:11;;;;;;;14.77;5.75;;;;;;;35.08;34.29;100170.94;5044112;28;20303;-73
2022/06/04 07:03:37;;;;;;;10.40;5.22;;;;;;;35.18;34.28;100168.75;5043184;28;20037;-73
2022/06/04 07:06:04;;;;;;;12.10;5.40;;;;;;;35.01;34.42;100178.84;5042698;28;20377;-72
2022/06/04 07:08:30;;;;;;;11.68;5.28;;;;;;;34.92;33.88;100162.28;5045243;28;20038;-73
2022/06/04 07:10:55;;;;;;;11.88;5.75;;;;;;;34.61;35.11;100169.63;5043244;28;20333;-73
2022/06/04 07:13:21;;;;;;;5.80;4.95;;;;;;;34.86;35.24;100169.03;5041721;28;20033;-73
2022/06/04 07:15:46;;;;;;;9.93;5.82;;;;;;;34.95;34.18;100160.84;5040649;28;20224;-73
2022/06/04 07:18:13;;;;;;;9.43;5.63;;;;;;;34.96;34.67;100166.03;5043001;28;20054;-72
2022/06/04 07:20:39;;;;;;;13.93;5.57;;;;;;;34.82;34.15;100163.34;5042030;28;20029;-73
2022/06/04 07:23:05;;;;;;;10.55;5.25;;;;;;;34.60;34.18;100160.56;5045223;28;20434;-73
2022/06/04 07:25:30;;;;;;;7.22;5.60;;;;;;;34.32;35.65;100156.22;5042843;28;20049;-73
2022/06/04 07:27:56;;;;;;;9.85;5.43;;;;;;;34.49;35.38;100150.94;5042042;28;20037;-73
2022/06/04 07:30:21;;;;;;;9.32;5.75;;;;;;;34.55;35.80;100156.00;5040709;28;20041;-73
2022/06/04 07:32:47;;;;;;;9.38;5.72;;;;;;;34.13;35.69;100150.88;5042684;28;20044;-73
2022/06/04 07:35:12;;;;;;;12.82;5.32;;;;;;;34.45;35.28;100149.94;5044652;28;20029;-73
2022/06/04 07:37:38;;;;;;;10.52;5.45;;;;;;;34.77;33.30;100149.69;5050790;28;21235;-72
2022/06/04 07:40:04;;;;;;;11.77;5.55;;;;;;;34.94;34.21;100142.69;5055108;28;20087;-72
2022/06/04 07:42:30;;;;;;;8.75;5.35;;;;;;;34.86;34.31;100142.31;5054249;28;20028;-73
2022/06/04 07:44:57;;;;;;;12.38;5.30;;;;;;;34.91;34.16;100140.56;5052606;28;20231;-73
2022/06/04 07:47:24;;;;;;;13.45;5.72;;;;;;;34.88;34.21;100142.00;5056145;28;20021;-73
2022/06/04 07:49:49;;;;;;;11.77;5.97;;;;;;;35.18;33.35;100141.22;5052606;28;20876;-73
2022/06/04 07:52:15;;;;;;;7.90;5.18;;;;;;;35.17;33.02;100145.09;5052077;28;20025;-73
2022/06/04 07:54:41;;;;;;;10.88;5.50;;;;;;;35.18;33.36;100146.72;5056911;28;20341;-73
2022/06/04 07:57:06;;;;;;;13.65;6.05;;;;;;;35.33;33.35;100140.03;5060866;28;20330;-73
2022/06/04 07:59:32;;;;;;;11.45;5.45;;;;;;;35.37;33.83;100141.00;5064894;28;20052;-73
2022/06/04 08:01:57;;;;;;;8.68;5.75;;;;;;;35.69;33.15;100139.03;5064616;28;20245;-73
2022/06/04 08:04:22;;;;;;;20.05;5.85;;;;;;;36.10;32.59;100139.47;5063664;28;20037;-73
2022/06/04 08:06:48;;;;;;;9.57;4.97;;;;;;;36.21;31.99;100137.22;5064603;28;20021;-73
2022/06/04 08:09:13;;;;;;;12.18;5.30;;;;;;;35.90;31.91;100134.59;5064758;28;20098;-73
2022/06/04 08:11:39;;;;;;;9.80;4.93;;;;;;;35.19;32.95;100137.34;5064450;28;20109;-73
2022/06/04 08:14:16;;;;;;;17.15;5.57;;;;;;;35.28;33.64;100128.31;5064616;28;20222;-73
2022/06/04 08:16:45;;;;;;;9.95;4.80;;;;;;;35.26;33.21;100141.56;5064337;28;20041;-73
2022/06/04 08:19:11;;;;;;;14.82;5.63;;;;;;;35.69;35.36;100137.09;5064028;28;20273;-73
2022/06/04 08:21:38;;;;;;;9.05;4.65;;;;;;;35.48;34.86;100142.38;5064329;28;20075;-73
2022/06/04 08:24:04;;;;;;;11.95;4.97;;;;;;;35.65;36.78;100135.31;5063888;28;20052;-74
2022/06/04 08:26:30;;;;;;;9.43;4.90;;;;;;;35.62;32.84;100130.44;5063983;28;20043;-73
2022/06/04 08:28:56;;;;;;;12.32;4.45;;;;;;;35.35;33.36;100123.19;5062288;28;20257;-73
2022/06/04 08:31:21;;;;;;;12.15;4.30;;;;;;;35.55;35.32;100119.06;5064204;28;20036;-73
2022/06/04 08:33:48;;;;;;;9.27;4.47;;;;;;;35.70;35.66;100115.88;5063820;28;20340;-73
2022/06/04 08:36:16;;;;;;;6.47;4.30;;;;;;;35.76;32.49;100115.41;5062955;28;20072;-73
2022/06/04 08:38:42;;;;;;;14.18;4.40;;;;;;;35.45;35.49;100103.66;5063985;28;20033;-74
2022/06/04 08:41:38;;;;;;;11.35;4.50;;;;;;;35.33;34.42;100109.75;5063892;28;20040;-74
2022/06/04 08:44:15;;;;;;;8.43;3.92;;;;;;;35.31;33.63;100113.91;5062386;28;20277;-73
2022/06/04 08:46:54;;;;;;;11.75;4.68;;;;;;;34.68;33.86;100110.31;5063888;28;20092;-73
2022/06/04 08:49:35;;;;;;;8.73;4.22;;;;;;;34.48;34.38;100111.63;5060636;28;20250;-72
2022/06/04 08:52:09;;;;;;;13.30;4.60;;;;;;;34.86;34.56;100106.56;5056664;28;20095;-73
2022/06/04 08:58:27;;;;;;;6.75;4.15;;;;;;;35.85;31.07;100098.09;5050625;28;20060;-72
2022/06/04 09:01:00;;;;;;;13.63;4.47;;;;;;;35.81;30.50;100097.94;5058102;28;20039;-73
2022/06/04 09:03:48;;;;;;;8.98;3.95;;;;;;;35.87;31.32;100084.81;5063424;28;20032;-72
2022/06/04 09:06:19;;;;;;;9.20;3.92;;;;;;;35.75;31.73;100072.47;5062184;28;20037;-72
2022/06/04 09:09:14;;;;;;;9.85;3.67;;;;;;;36.06;30.88;100090.84;5062578;28;20037;-72
2022/06/04 09:11:55;;;;;;;7.60;3.85;;;;;;;36.32;30.14;100090.88;5063671;28;20112;-72
2022/06/04 09:14:23;;;;;;;10.23;3.85;;;;;;;36.37;30.19;100088.75;5062794;28;20063;-73
2022/06/04 09:17:13;;;;;;;8.57;3.33;;;;;;;36.14;29.78;100085.31;5063416;28;20045;-73
2022/06/04 09:19:39;;;;;;;7.03;3.55;;;;;;;35.07;30.95;100092.25;5052883;28;20100;-72
2022/06/04 09:22:36;;;;;;;8.52;4.10;;;;;;;34.42;31.29;100079.06;5061868;28;20041;-72
2022/06/04 09:25:02;;;;;;;12.48;3.78;;;;;;;33.49;32.98;100086.84;5061635;28;20037;-72
2022/06/04 09:27:39;;;;;;;9.25;4.15;;;;;;;33.53;33.88;100074.94;5063046;28;20049;-72
2022/06/04 09:30:30;;;;;;;10.75;4.47;;;;;;;32.74;36.22;100078.84;5061860;28;20036;-72
2022/06/04 09:33:19;;;;;;;12.60;4.60;;;;;;;31.93;36.98;100076.22;5062822;28;20047;-72
2022/06/04 09:35:45;;;;;;;12.57;4.43;;;;;;;32.19;36.69;100067.63;5061976;28;20025;-72
2022/06/04 09:38:26;;;;;;;10.73;5.03;;;;;;;32.18;36.18;100061.31;5062929;28;20041;-72
2022/06/04 09:41:07;;;;;;;10.40;4.97;;;;;;;31.86;37.09;100051.13;5062963;28;20063;-72
2022/06/04 09:43:33;;;;;;;11.55;4.70;;;;;;;32.17;37.78;100056.97;5061519;28;20060;-72
2022/06/04 09:46:01;;;;;;;9.73;4.43;;;;;;;31.73;37.42;100043.63;5062642;28;20099;-72
2022/06/04 09:48:32;;;;;;;10.77;5.20;;;;;;;31.32;38.58;100054.25;5057003;28;20044;-72
2022/06/04 09:51:01;;;;;;;6.85;4.30;;;;;;;31.10;37.86;100052.81;5050639;28;20025;-72
2022/06/04 09:53:33;;;;;;;6.18;4.18;;;;;;;31.44;37.96;100047.25;5056336;28;20253;-72
2022/06/04 09:56:08;;;;;;;17.50;5.05;;;;;;;31.83;36.75;100043.50;5064654;28;20119;-72
2022/06/04 09:58:37;;;;;;;14.60;4.78;;;;;;;31.96;37.46;100031.81;5094030;28;20036;-73
2022/06/04 10:01:16;;;;;;;10.20;4.43;;;;;;;31.42;37.78;100035.81;5092505;28;20329;-72
2022/06/04 10:03:43;;;;;;;10.98;4.85;;;;;;;31.96;37.80;100026.31;5092275;28;20272;-72
2022/06/04 10:06:15;;;;;;;8.52;4.20;;;;;;;32.00;37.67;100024.63;5094385;28;20032;-72
2022/06/04 10:11:59;;;;;;;10.40;4.25;;;;;;;32.06;36.70;100020.69;5093285;28;20035;-72
2022/06/04 10:14:34;;;;;;;10.90;4.35;;;;;;;32.07;38.15;100022.31;5095762;28;20327;-73
2022/06/04 10:17:00;;;;;;;13.07;4.35;;;;;;;32.18;38.57;100016.69;5095698;28;20104;-72
2022/06/04 10:19:26;;;;;;;12.20;4.00;;;;;;;32.37;37.45;100001.88;5091497;28;20020;-72
2022/06/04 10:22:14;;;;;;;7.82;4.05;;;;;;;32.62;36.69;100008.03;5093094;28;20059;-73
2022/06/04 10:24:55;;;;;;;10.20;3.97;;;;;;;32.77;37.73;99993.22;5084155;28;20384;-72
2022/06/04 10:27:39;;;;;;;10.70;3.92;;;;;;;33.05;35.27;99994.09;5094539;28;20039;-73
2022/06/04 10:30:07;;;;;;;10.65;4.43;;;;;;;32.56;36.10;100003.75;5095816;28;20295;-73
2022/06/04 10:33:05;;;;;;;10.90;4.35;;;;;;;32.55;36.24;99993.91;5095178;28;20040;-72
2022/06/04 10:35:49;;;;;;;7.68;4.05;;;;;;;31.99;36.93;99997.53;5095563;28;20095;-73
2022/06/04 10:38:23;;;;;;;;;;;;;;;31.97;37.69;99997.00;5094806;28;20040;-72
2022/06/04 10:41:15;;;;;;;11.68;3.95;;;;;;;32.01;36.85;99995.31;5092064;28;19918;-72
2022/06/04 10:44:12;;;;;;;8.57;3.80;;;;;;;31.93;37.76;99993.25;5095563;28;20069;-72
2022/06/04 10:46:47;;;;;;;9.27;4.13;;;;;;;31.35;38.03;99991.56;5094449;28;20044;-72
2022/06/04 10:49:15;;;;;;;7.55;4.50;;;;;;;31.32;38.46;99983.94;5093232;28;20395;-72
2022/06/04 10:52:02;;;;;;;12.48;5.15;;;;;;;31.15;38.77;99983.59;5095616;28;20040;-72
2022/06/04 10:54:44;;;;;;;9.43;4.32;;;;;;;31.00;38.96;99981.81;5094365;28;20043;-72
2022/06/04 10:57:16;;;;;;;11.07;4.70;;;;;;;31.37;39.06;99977.59;5096627;28;20383;-72
2022/06/04 10:59:53;;;;;;;11.75;4.32;;;;;;;31.79;37.80;99973.19;5091567;28;20094;-72
2022/06/04 11:02:31;;;;;;;11.05;4.00;;;;;;;31.98;38.15;99974.81;5094535;28;20032;-72
2022/06/04 11:05:05;;;;;;;10.77;4.60;;;;;;;32.09;38.68;99967.22;5093765;28;20032;-72
2022/06/04 11:07:57;;;;;;;10.10;4.15;;;;;;;32.35;35.92;99959.47;5096055;28;20120;-72
2022/06/04 11:10:30;;;;;;;20.58;4.72;;;;;;;32.22;37.29;99958.25;5092515;28;20236;-72
2022/06/04 11:13:09;;;;;;;8.27;4.00;;;;;;;31.95;37.96;99956.22;5097880;28;20263;-72
2022/06/04 11:15:42;;;;;;;7.88;3.78;;;;;;;32.08;37.38;99958.19;5095373;28;20127;-72
2022/06/04 11:18:56;;;;;;;9.82;4.22;;;;;;;31.60;36.66;99960.28;5092723;28;20245;-72
2022/06/04 11:21:48;;;;;;;15.25;4.57;;;;;;;31.91;39.04;99962.59;5072128;28;20036;-72
2022/06/04 11:24:16;;;;;;;11.20;4.10;;;;;;;32.03;38.33;99955.56;5086168;28;20060;-72
2022/06/04 11:27:00;;;;;;;9.00;4.18;;;;;;;31.83;38.04;99955.06;5096444;28;20028;-73
2022/06/04 11:29:26;;;;;;;8.35;4.25;;;;;;;31.68;39.04;99951.41;5094257;28;20039;-72
2022/06/04 11:32:12;;;;;;;8.93;4.05;;;;;;;31.62;38.84;99949.88;5092190;28;20332;-72
2022/06/04 11:35:08;;;;;;;11.27;4.53;;;;;;;31.66;38.91;99929.00;5091501;28;20301;-73
2022/06/04 11:37:55;;;;;;;9.13;3.85;;;;;;;31.98;38.36;99928.25;5094984;28;20183;-72
2022/06/04 11:40:40;;;;;;;13.20;4.35;;;;;;;32.01;38.77;99927.66;5090948;28;20346;-72
2022/06/04 11:43:38;;;;;;;9.63;4.15;;;;;;;31.99;38.30;99927.13;5091602;28;20321;-72
2022/06/04 11:46:24;;;;;;;8.63;4.30;;;;;;;32.06;38.93;99924.00;5092514;28;20075;-72
2022/06/04 11:49:01;;;;;;;7.47;4.20;;;;;;;32.06;37.51;99913.06;5094994;28;20032;-72
2022/06/04 11:51:57;;;;;;;12.07;4.30;;;;;;;32.19;37.49;99909.53;5096729;28;20214;-72
2022/06/04 11:55:17;;;;;;;11.50;4.07;;;;;;;32.21;37.01;99896.34;5091147;28;20047;-72